CMA CGM La Boussole — A8FZ6 — position and weather

sailwx.info

Track history (hours):
 
Tides and Currents Weather Stations Pressure Air Temp Water Temp Dewpoint Dewpoint Depression Visibility Wind Speed Wind Dir Waves Ship Positions

CMA CGM La Boussole

Last reported at 2015-May-30 10:23 UTC. Time now 2015-May-30 10:36 UTC.
Position N 41°21' E 002°10'.

Length 210.1 m; beam 30.2 m; draft 11.5 m.

Type: Ship (hazmat cat D). MMSI: 636090821.

Date/timePositionNaut miles runAvg speedWind from/ knotsBaromVisibWave heightAir tempDewpointWater temp
2015-May-30 10:23N 41°21' E 002°10'0 0.0
2015-May-30 09:29N 41°21' E 002°10'0 0.0
2015-May-30 08:28N 41°21' E 002°10'0 0.0
2015-May-30 07:28N 41°21' E 002°10'0 0.0
2015-May-30 06:27N 41°21' E 002°10'0 0.0
2015-May-30 04:23N 41°21' E 002°10'3 3.5
2015-May-30 03:25N 41°18' E 002°11'1012.1
2015-May-30 02:33N 41°19' E 002°25'1616.1
2015-May-30 01:32N 41°25' E 002°45'1515.7
2015-May-30 00:33N 41°32' E 003°03'1616.1
2015-May-29 23:32N 41°45' E 003°18'1616.3
2015-May-29 22:33N 41°57' E 003°32'1716.6
2015-May-29 21:33N 42°09' E 003°47'1616.4
2015-May-29 20:33N 42°22' E 004°01'1616.5
2015-May-29 19:33N 42°34' E 004°16'1716.7
2015-May-29 18:33N 42°47' E 004°31'1616.2
2015-May-29 17:34N 42°59' E 004°45'1616.1
2015-May-29 16:33N 43°11' E 004°60'1312.8
2015-May-29 15:34N 43°23' E 004°57'4 4.2
2015-May-29 14:33N 43°24' E 004°51'0 0.1
2015-May-29 13:33N 43°24' E 004°51'0 0.1
2015-May-29 12:33N 43°24' E 004°51'0 0.0
2015-May-29 11:32N 43°24' E 004°51'0 0.1
2015-May-29 10:32N 43°24' E 004°51'0 0.1
2015-May-29 09:31N 43°24' E 004°51'0 0.0
2015-May-29 08:31N 43°24' E 004°51'0 0.0
2015-May-29 07:33N 43°24' E 004°51'0 0.1
2015-May-29 06:33N 43°24' E 004°51'0 0.1
2015-May-29 05:33N 43°24' E 004°51'0 0.1
2015-May-29 04:32N 43°24' E 004°51'0 0.1
2015-May-29 03:34N 43°24' E 004°51'7 6.8
2015-May-29 02:33N 43°21' E 004°59'1212.3
2015-May-29 01:33N 43°10' E 005°07'1616.3
2015-May-29 00:33N 43°02' E 005°27'1818.1
2015-May-28 23:33N 42°54' E 005°49'1817.9
2015-May-28 22:33N 42°50' E 006°13'2117.7
2015-May-28 21:22N 42°57' E 006°40'1518.6
2015-May-28 20:33N 43°05' E 006°57'2218.6
2015-May-28 19:23N 43°18' E 007°21'2118.8
2015-May-28 18:15N 43°31' E 007°45'1319.4
2015-May-28 17:34N 43°39' E 007°59'2119.3
2015-May-28 16:28N 43°52' E 008°22'1819.2
2015-May-28 15:33N 44°05' E 008°38'1818.6
2015-May-28 14:33N 44°18' E 008°56'6 5.9
2015-May-28 13:32N 44°24' E 008°54'0 0.0
2015-May-28 12:32N 44°24' E 008°54'0 0.0
2015-May-28 11:31N 44°24' E 008°54'0 0.0
2015-May-28 10:31N 44°24' E 008°54'0 0.0
2015-May-28 09:30N 44°24' E 008°54'0 0.0
2015-May-28 08:33N 44°24' E 008°54'0 0.0
2015-May-28 07:33N 44°24' E 008°54'0 0.0
2015-May-28 06:32N 44°24' E 008°54'0 0.0
2015-May-28 05:32N 44°24' E 008°54'0 0.0
2015-May-28 04:28N 44°24' E 008°54'0 0.0
2015-May-28 03:28N 44°24' E 008°54'0 0.0
2015-May-28 02:31N 44°24' E 008°54'0 0.0
2015-May-28 01:30N 44°24' E 008°54'0 0.0
2015-May-28 00:33N 44°24' E 008°54'0 0.0
2015-May-27 23:32N 44°24' E 008°54'0 0.0
2015-May-27 22:32N 44°24' E 008°54'0 0.0
2015-May-27 21:28N 44°24' E 008°54'0 0.0
2015-May-27 20:31N 44°24' E 008°54'0 0.0
2015-May-27 19:33N 44°24' E 008°54'0 0.0
2015-May-27 18:33N 44°24' E 008°54'0 0.0
2015-May-27 17:33N 44°24' E 008°54'0 0.3
2015-May-27 16:33N 44°24' E 008°54'1211.8
2015-May-27 15:33N 44°15' E 009°05'1918.8
2015-May-27 14:34N 44°01' E 009°22'1818.5
2015-May-27 13:34N 43°46' E 009°38'1817.7
2015-May-27 12:34N 43°34' E 009°55'1615.9
2015-May-27 11:33N 43°32' E 010°17'2 2.3
2015-May-27 10:32N 43°34' E 010°18'0 0.0
2015-May-27 09:31N 43°34' E 010°18'0 0.0
2015-May-27 08:31N 43°34' E 010°18'0 0.0
2015-May-27 07:33N 43°34' E 010°18'0 0.0
2015-May-27 06:30N 43°34' E 010°18'0 0.0
2015-May-27 05:21N 43°34' E 010°18'0 0.0
2015-May-27 04:29N 43°34' E 010°18'0 0.0
2015-May-27 03:32N 43°34' E 010°18'0 0.0
2015-May-27 02:31N 43°34' E 010°18'0 0.0
2015-May-27 01:31N 43°34' E 010°18'0 0.0
2015-May-27 00:33N 43°34' E 010°18'0 0.0
2015-May-26 23:33N 43°34' E 010°18'0 0.0
2015-May-26 22:33N 43°34' E 010°18'0 0.0
2015-May-26 21:32N 43°34' E 010°18'0 0.0
2015-May-26 20:32N 43°34' E 010°18'0 0.0
2015-May-26 19:31N 43°34' E 010°18'0 0.0
2015-May-26 18:31N 43°34' E 010°18'0 0.0
2015-May-26 17:33N 43°34' E 010°18'0 0.0
2015-May-26 16:30N 43°34' E 010°18'0 0.0
2015-May-26 15:33N 43°34' E 010°18'0 0.0
2015-May-26 14:32N 43°34' E 010°18'0 0.0
2015-May-26 13:32N 43°34' E 010°18'0 0.0
2015-May-26 12:31N 43°34' E 010°18'0 0.0
2015-May-26 11:31N 43°34' E 010°18'0 0.0
2015-May-26 10:33N 43°34' E 010°18'0 0.5
2015-May-26 09:33N 43°34' E 010°18'9 8.7
2015-May-26 08:34N 43°27' E 010°11'1616.1
2015-May-26 07:34N 43°18' E 009°53'1818.0
2015-May-26 06:34N 43°16' E 009°28'2019.9
2015-May-26 05:33N 43°08' E 009°03'30520.3
2015-May-25 14:29N 40°19' E 003°22'1920.5
2015-May-25 13:33N 40°08' E 003°02'2120.9
2015-May-25 12:34N 39°56' E 002°40'2220.8
2015-May-25 11:31N 39°43' E 002°17'2020.5
2015-May-25 10:33N 39°32' E 001°56'2020.3
2015-May-25 09:33N 39°19' E 001°35'12619.9
2015-May-25 03:14N 37°48' W 000°15'1420.1
2015-May-25 02:33N 37°38' W 000°26'2019.7
2015-May-25 01:33N 37°24' W 000°44'2319.5
2015-May-25 00:23N 37°09' W 001°06'20719.1
2015-May-24 13:33N 36°03' W 005°10'1312.8
2015-May-24 12:33N 36°07' W 005°25'0 0.1
2015-May-24 11:32N 36°08' W 005°25'0 0.0
2015-May-24 10:28N 36°08' W 005°25'0 0.1
2015-May-24 09:31N 36°08' W 005°25'0 0.1
2015-May-24 08:09N 36°08' W 005°25'0 0.1
2015-May-24 07:31N 36°08' W 005°25'0 0.1
2015-May-24 06:31N 36°08' W 005°25'0 0.0
2015-May-24 05:32N 36°08' W 005°25'0 0.0
2015-May-24 04:31N 36°08' W 005°25'0 0.0
2015-May-24 03:31N 36°08' W 005°25'0 0.0
2015-May-24 02:33N 36°08' W 005°25'0 0.0
2015-May-24 01:33N 36°08' W 005°25'0 0.0
2015-May-24 00:33N 36°08' W 005°25'1 1.3
2015-May-23 23:31N 36°08' W 005°24'5 4.9
2015-May-23 22:34N 36°03' W 005°22'39418.8
2015-May-23 01:33N 34°56' W 013°20'48218.9
2015-May-22 00:00N 32°54' W 022°42'23419.5 070 / 81030.010.8 18.014.6
2015-May-21 12:00N 31°42' W 027°06'22518.7 070 / 131029.510.8 21.014.2
2015-May-21 00:00N 30°24' W 031°12'23019.1 070 / 91026.510.8 21.016.0
2015-May-20 12:00N 29°00' W 035°18'   110 / 131023.510.8 23.018.3
Track history (hours):
 
Tides and Currents Weather Stations Pressure Air Temp Water Temp Dewpoint Dewpoint Depression Visibility Wind Speed Wind Dir Waves Ship Positions

CMA CGM La Boussole

Last reported at 2015-May-30 10:23 UTC. Time now 2015-May-30 10:36 UTC.
Position N 41°21' E 002°10'.

Length 210.1 m; beam 30.2 m; draft 11.5 m.

Type: Ship (hazmat cat D). MMSI: 636090821.

Date/timePositionNaut miles runAvg speedWind from/ knotsBaromVisibWave heightAir tempDewpointWater temp
2015-May-30 10:23N 41°21' E 002°10'0 0.0
2015-May-30 09:29N 41°21' E 002°10'0 0.0
2015-May-30 08:28N 41°21' E 002°10'0 0.0
2015-May-30 07:28N 41°21' E 002°10'0 0.0
2015-May-30 06:27N 41°21' E 002°10'0 0.0
2015-May-30 04:23N 41°21' E 002°10'3 3.5
2015-May-30 03:25N 41°18' E 002°11'1012.1
2015-May-30 02:33N 41°19' E 002°25'1616.1
2015-May-30 01:32N 41°25' E 002°45'1515.7
2015-May-30 00:33N 41°32' E 003°03'1616.1
2015-May-29 23:32N 41°45' E 003°18'1616.3
2015-May-29 22:33N 41°57' E 003°32'1716.6
2015-May-29 21:33N 42°09' E 003°47'1616.4
2015-May-29 20:33N 42°22' E 004°01'1616.5
2015-May-29 19:33N 42°34' E 004°16'1716.7
2015-May-29 18:33N 42°47' E 004°31'1616.2
2015-May-29 17:34N 42°59' E 004°45'1616.1
2015-May-29 16:33N 43°11' E 004°60'1312.8
2015-May-29 15:34N 43°23' E 004°57'4 4.2
2015-May-29 14:33N 43°24' E 004°51'0 0.1
2015-May-29 13:33N 43°24' E 004°51'0 0.1
2015-May-29 12:33N 43°24' E 004°51'0 0.0
2015-May-29 11:32N 43°24' E 004°51'0 0.1
2015-May-29 10:32N 43°24' E 004°51'0 0.1
2015-May-29 09:31N 43°24' E 004°51'0 0.0
2015-May-29 08:31N 43°24' E 004°51'0 0.0
2015-May-29 07:33N 43°24' E 004°51'0 0.1
2015-May-29 06:33N 43°24' E 004°51'0 0.1
2015-May-29 05:33N 43°24' E 004°51'0 0.1
2015-May-29 04:32N 43°24' E 004°51'0 0.1
2015-May-29 03:34N 43°24' E 004°51'7 6.8
2015-May-29 02:33N 43°21' E 004°59'1212.3
2015-May-29 01:33N 43°10' E 005°07'1616.3
2015-May-29 00:33N 43°02' E 005°27'1818.1
2015-May-28 23:33N 42°54' E 005°49'1817.9
2015-May-28 22:33N 42°50' E 006°13'2117.7
2015-May-28 21:22N 42°57' E 006°40'1518.6
2015-May-28 20:33N 43°05' E 006°57'2218.6
2015-May-28 19:23N 43°18' E 007°21'2118.8
2015-May-28 18:15N 43°31' E 007°45'1319.4
2015-May-28 17:34N 43°39' E 007°59'2119.3
2015-May-28 16:28N 43°52' E 008°22'1819.2
2015-May-28 15:33N 44°05' E 008°38'1818.6
2015-May-28 14:33N 44°18' E 008°56'6 5.9
2015-May-28 13:32N 44°24' E 008°54'0 0.0
2015-May-28 12:32N 44°24' E 008°54'0 0.0
2015-May-28 11:31N 44°24' E 008°54'0 0.0
2015-May-28 10:31N 44°24' E 008°54'0 0.0
2015-May-28 09:30N 44°24' E 008°54'0 0.0
2015-May-28 08:33N 44°24' E 008°54'0 0.0
2015-May-28 07:33N 44°24' E 008°54'0 0.0
2015-May-28 06:32N 44°24' E 008°54'0 0.0
2015-May-28 05:32N 44°24' E 008°54'0 0.0
2015-May-28 04:28N 44°24' E 008°54'0 0.0
2015-May-28 03:28N 44°24' E 008°54'0 0.0
2015-May-28 02:31N 44°24' E 008°54'0 0.0
2015-May-28 01:30N 44°24' E 008°54'0 0.0
2015-May-28 00:33N 44°24' E 008°54'0 0.0
2015-May-27 23:32N 44°24' E 008°54'0 0.0
2015-May-27 22:32N 44°24' E 008°54'0 0.0
2015-May-27 21:28N 44°24' E 008°54'0 0.0
2015-May-27 20:31N 44°24' E 008°54'0 0.0
2015-May-27 19:33N 44°24' E 008°54'0 0.0
2015-May-27 18:33N 44°24' E 008°54'0 0.0
2015-May-27 17:33N 44°24' E 008°54'0 0.3
2015-May-27 16:33N 44°24' E 008°54'1211.8
2015-May-27 15:33N 44°15' E 009°05'1918.8
2015-May-27 14:34N 44°01' E 009°22'1818.5
2015-May-27 13:34N 43°46' E 009°38'1817.7
2015-May-27 12:34N 43°34' E 009°55'1615.9
2015-May-27 11:33N 43°32' E 010°17'2 2.3
2015-May-27 10:32N 43°34' E 010°18'0 0.0
2015-May-27 09:31N 43°34' E 010°18'0 0.0
2015-May-27 08:31N 43°34' E 010°18'0 0.0
2015-May-27 07:33N 43°34' E 010°18'0 0.0
2015-May-27 06:30N 43°34' E 010°18'0 0.0
2015-May-27 05:21N 43°34' E 010°18'0 0.0
2015-May-27 04:29N 43°34' E 010°18'0 0.0
2015-May-27 03:32N 43°34' E 010°18'0 0.0
2015-May-27 02:31N 43°34' E 010°18'0 0.0
2015-May-27 01:31N 43°34' E 010°18'0 0.0
2015-May-27 00:33N 43°34' E 010°18'0 0.0
2015-May-26 23:33N 43°34' E 010°18'0 0.0
2015-May-26 22:33N 43°34' E 010°18'0 0.0
2015-May-26 21:32N 43°34' E 010°18'0 0.0
2015-May-26 20:32N 43°34' E 010°18'0 0.0
2015-May-26 19:31N 43°34' E 010°18'0 0.0
2015-May-26 18:31N 43°34' E 010°18'0 0.0
2015-May-26 17:33N 43°34' E 010°18'0 0.0
2015-May-26 16:30N 43°34' E 010°18'0 0.0
2015-May-26 15:33N 43°34' E 010°18'0 0.0
2015-May-26 14:32N 43°34' E 010°18'0 0.0
2015-May-26 13:32N 43°34' E 010°18'0 0.0
2015-May-26 12:31N 43°34' E 010°18'0 0.0
2015-May-26 11:31N 43°34' E 010°18'0 0.0
2015-May-26 10:33N 43°34' E 010°18'0 0.5
2015-May-26 09:33N 43°34' E 010°18'9 8.7
2015-May-26 08:34N 43°27' E 010°11'1616.1
2015-May-26 07:34N 43°18' E 009°53'1818.0
2015-May-26 06:34N 43°16' E 009°28'2019.9
2015-May-26 05:33N 43°08' E 009°03'30520.3
2015-May-25 14:29N 40°19' E 003°22'1920.5
2015-May-25 13:33N 40°08' E 003°02'2120.9
2015-May-25 12:34N 39°56' E 002°40'2220.8
2015-May-25 11:31N 39°43' E 002°17'2020.5
2015-May-25 10:33N 39°32' E 001°56'2020.3
2015-May-25 09:33N 39°19' E 001°35'12619.9
2015-May-25 03:14N 37°48' W 000°15'1420.1
2015-May-25 02:33N 37°38' W 000°26'2019.7
2015-May-25 01:33N 37°24' W 000°44'2319.5
2015-May-25 00:23N 37°09' W 001°06'20719.1
2015-May-24 13:33N 36°03' W 005°10'1312.8
2015-May-24 12:33N 36°07' W 005°25'0 0.1
2015-May-24 11:32N 36°08' W 005°25'0 0.0
2015-May-24 10:28N 36°08' W 005°25'0 0.1
2015-May-24 09:31N 36°08' W 005°25'0 0.1
2015-May-24 08:09N 36°08' W 005°25'0 0.1
2015-May-24 07:31N 36°08' W 005°25'0 0.1
2015-May-24 06:31N 36°08' W 005°25'0 0.0
2015-May-24 05:32N 36°08' W 005°25'0 0.0
2015-May-24 04:31N 36°08' W 005°25'0 0.0
2015-May-24 03:31N 36°08' W 005°25'0 0.0
2015-May-24 02:33N 36°08' W 005°25'0 0.0
2015-May-24 01:33N 36°08' W 005°25'0 0.0
2015-May-24 00:33N 36°08' W 005°25'1 1.3
2015-May-23 23:31N 36°08' W 005°24'5 4.9
2015-May-23 22:34N 36°03' W 005°22'39418.8
2015-May-23 01:33N 34°56' W 013°20'48218.9
2015-May-22 00:00N 32°54' W 022°42'23419.5 070 / 81030.010.8 18.014.6
2015-May-21 12:00N 31°42' W 027°06'22518.7 070 / 131029.510.8 21.014.2
2015-May-21 00:00N 30°24' W 031°12'23019.1 070 / 91026.510.8 21.016.0
2015-May-20 12:00N 29°00' W 035°18'   110 / 131023.510.8 23.018.3

Dump ship's entire track history